Time;durP1;ratioP1;P1;durP2;ratioP2;P2;SDS_P1;SDS_P2;PMS_P1;PMS_P2;Temp;Humidity;BMP_temperature;BMP_pressure;BME280_temperature;BME280_humidity;BME280_pressure;Samples;Min_cycle;Max_cycle;Signal;HPM_P1;HPM_P2
2022/01/19 00:00:36;;;;;;;60.65;30.45;;;;;;;-1.61;100.00;100688.44;2099088;28;20652;-70
2022/01/19 00:01:38;;;;;;;49.83;28.77;;;;;;;-1.61;100.00;100688.44;2098969;28;20637;-70
2022/01/19 00:02:40;;;;;;;61.55;30.70;;;;;;;-1.62;100.00;100679.78;2099131;28;20239;-70
2022/01/19 00:03:42;;;;;;;58.40;29.77;;;;;;;-1.60;100.00;100690.88;2099020;28;20198;-70
2022/01/19 00:04:44;;;;;;;64.25;30.15;;;;;;;-1.59;100.00;100689.88;2098975;28;20194;-70
2022/01/19 00:05:46;;;;;;;63.67;30.63;;;;;;;-1.58;100.00;100682.84;2097491;28;20731;-70
2022/01/19 00:06:47;;;;;;;54.80;29.52;;;;;;;-1.56;100.00;100686.91;2098021;28;20241;-70
2022/01/19 00:07:48;;;;;;;53.87;29.00;;;;;;;-1.57;100.00;100681.84;2098963;28;20191;-70
2022/01/19 00:08:49;;;;;;;57.58;29.77;;;;;;;-1.55;100.00;100679.88;2099211;28;20194;-70
2022/01/19 00:09:53;;;;;;;64.93;28.67;;;;;;;-1.53;100.00;100678.72;2098981;28;20186;-70
2022/01/19 00:10:54;;;;;;;58.25;30.15;;;;;;;-1.51;100.00;100678.53;2099009;28;20763;-70
2022/01/19 00:11:58;;;;;;;58.80;29.00;;;;;;;-1.49;100.00;100674.72;2098280;28;20680;-70
2022/01/19 00:13:00;;;;;;;63.35;29.10;;;;;;;-1.47;100.00;100687.66;2098362;28;20194;-70
2022/01/19 00:14:02;;;;;;;60.35;29.42;;;;;;;-1.44;100.00;100671.59;2097751;28;20202;-70
2022/01/19 00:15:05;;;;;;;58.50;29.00;;;;;;;-1.43;100.00;100671.41;2098564;28;20197;-70
2022/01/19 00:16:11;;;;;;;48.15;28.00;;;;;;;-1.40;100.00;100665.00;2098340;28;20241;-70
2022/01/19 00:17:13;;;;;;;56.90;28.73;;;;;;;-1.39;100.00;100668.44;2098920;28;20194;-70
2022/01/19 00:18:15;;;;;;;59.38;28.73;;;;;;;-1.43;100.00;100663.56;2106723;28;20185;-70
2022/01/19 00:19:18;;;;;;;50.35;28.92;;;;;;;-1.35;100.00;100664.47;2098234;28;20637;-70
2022/01/19 00:20:21;;;;;;;50.45;29.13;;;;;;;-1.37;100.00;100662.03;2098364;28;20269;-70
2022/01/19 00:21:21;;;;;;;53.08;28.85;;;;;;;-1.39;100.00;100664.03;2097788;28;20579;-70
2022/01/19 00:22:23;;;;;;;55.37;29.80;;;;;;;-1.37;100.00;100656.00;2089942;28;20219;-70
2022/01/19 00:23:26;;;;;;;55.63;28.90;;;;;;;-1.36;100.00;100657.63;2098322;28;20676;-70
2022/01/19 00:24:30;;;;;;;58.03;29.55;;;;;;;-1.36;100.00;100662.84;2099152;28;20189;-70
2022/01/19 00:25:32;;;;;;;52.20;28.05;;;;;;;-1.35;100.00;100657.44;2098962;28;20194;-70
2022/01/19 00:26:33;;;;;;;54.53;28.17;;;;;;;-1.32;100.00;100658.88;2098791;28;20209;-70
2022/01/19 00:27:36;;;;;;;53.03;29.03;;;;;;;-1.34;100.00;100664.28;2098164;28;20229;-70
2022/01/19 00:28:37;;;;;;;54.97;29.85;;;;;;;-1.36;100.00;100663.66;2090048;28;20280;-70
2022/01/19 00:29:39;;;;;;;63.00;29.50;;;;;;;-1.34;100.00;100660.88;2098311;28;20240;-70
2022/01/19 00:30:42;;;;;;;50.55;29.05;;;;;;;-1.35;100.00;100661.88;2098872;28;20194;-70
2022/01/19 00:31:44;;;;;;;50.70;28.45;;;;;;;-1.33;100.00;100663.31;2098061;28;20700;-70
2022/01/19 00:32:46;;;;;;;53.88;29.20;;;;;;;-1.33;100.00;100658.06;2098291;28;20737;-70
2022/01/19 00:33:48;;;;;;;48.13;27.20;;;;;;;-1.32;100.00;100656.25;2098833;28;20583;-70
2022/01/19 00:34:48;;;;;;;51.83;28.58;;;;;;;-1.33;100.00;100652.00;2098023;28;20198;-70
2022/01/19 00:35:51;;;;;;;48.27;27.43;;;;;;;-1.32;100.00;100653.63;2098490;28;20672;-70
2022/01/19 00:36:52;;;;;;;51.58;28.65;;;;;;;-1.29;100.00;100648.88;2097734;28;20281;-70
2022/01/19 00:37:58;;;;;;;57.30;28.27;;;;;;;-1.30;100.00;100652.50;2097883;28;20193;-70
2022/01/19 00:38:59;;;;;;;57.10;29.17;;;;;;;-1.27;100.00;100662.59;2097817;28;20794;-69
2022/01/19 00:40:01;;;;;;;58.53;29.67;;;;;;;-1.29;100.00;100648.88;2089510;28;20620;-70
2022/01/19 00:41:05;;;;;;;53.88;27.95;;;;;;;-1.23;100.00;100647.31;2089892;28;20569;-70
2022/01/19 00:42:07;;;;;;;48.03;28.60;;;;;;;-1.23;100.00;100656.00;2098217;28;20190;-70
2022/01/19 00:43:10;;;;;;;57.27;29.17;;;;;;;-1.24;100.00;100657.00;2098741;28;20274;-70
2022/01/19 00:44:12;;;;;;;50.90;28.35;;;;;;;-1.24;100.00;100659.59;2106458;28;20197;-70
2022/01/19 00:45:17;;;;;;;49.25;28.58;;;;;;;-1.23;100.00;100665.66;2106129;28;20273;-70
2022/01/19 00:46:19;;;;;;;51.22;28.40;;;;;;;-1.20;100.00;100667.94;2097946;28;20224;-70
2022/01/19 00:47:20;;;;;;;61.22;30.40;;;;;;;-1.18;100.00;100665.94;2089820;28;20199;-69
2022/01/19 00:48:22;;;;;;;56.57;30.13;;;;;;;-1.20;100.00;100667.94;2089694;28;20202;-70
2022/01/19 00:49:22;;;;;;;62.65;29.50;;;;;;;-1.23;100.00;100666.47;2098379;28;20194;-70
2022/01/19 00:50:29;;;;;;;54.33;29.23;;;;;;;-1.24;100.00;100662.22;2098831;28;20179;-70
2022/01/19 00:51:31;;;;;;;56.67;29.98;;;;;;;-1.21;100.00;100682.03;2097561;28;20236;-70
2022/01/19 00:52:36;;;;;;;59.10;30.67;;;;;;;-1.20;100.00;100684.47;2090041;28;20540;-70
2022/01/19 00:53:37;;;;;;;60.72;31.38;;;;;;;-1.20;100.00;100683.66;2098343;28;20190;-70
2022/01/19 00:54:42;;;;;;;56.17;31.10;;;;;;;-1.17;100.00;100673.63;2098005;28;20653;-70
2022/01/19 00:55:43;;;;;;;59.05;31.48;;;;;;;-1.16;100.00;100674.44;2098235;28;20201;-70
2022/01/19 00:56:45;;;;;;;57.67;31.30;;;;;;;-1.18;100.00;100672.00;2098686;28;20178;-70
2022/01/19 00:57:46;;;;;;;56.65;30.60;;;;;;;-1.14;100.00;100680.28;2098642;28;20431;-70
2022/01/19 00:58:50;;;;;;;59.13;30.57;;;;;;;-1.16;100.00;100667.38;2097542;28;20233;-70
2022/01/19 00:59:52;;;;;;;55.10;30.20;;;;;;;-1.09;100.00;100674.53;2089799;28;20193;-70
2022/01/19 01:00:56;;;;;;;58.90;30.88;;;;;;;-1.15;100.00;100681.28;2090342;28;20186;-70
2022/01/19 01:01:58;;;;;;;56.55;30.45;;;;;;;-1.14;100.00;100680.28;2089714;28;20210;-70
2022/01/19 01:03:00;;;;;;;66.45;32.28;;;;;;;-1.15;100.00;100676.84;2090001;28;20685;-70
2022/01/19 01:04:00;;;;;;;61.05;30.90;;;;;;;-1.15;100.00;100681.28;2090398;28;20191;-70
2022/01/19 01:05:03;;;;;;;52.37;30.23;;;;;;;-1.09;100.00;100685.00;2089622;28;20294;-70
2022/01/19 01:06:04;;;;;;;58.05;30.92;;;;;;;-1.06;100.00;100680.22;2089254;28;20569;-70
2022/01/19 01:07:07;;;;;;;61.33;31.00;;;;;;;-1.07;100.00;100683.81;2089837;28;20693;-70
2022/01/19 01:08:07;;;;;;;60.65;30.80;;;;;;;-1.07;100.00;100685.63;2089837;28;20210;-70
2022/01/19 01:09:09;;;;;;;60.73;31.83;;;;;;;-1.06;100.00;100692.50;2098064;28;20676;-70
2022/01/19 01:10:13;;;;;;;53.38;31.73;;;;;;;-1.10;100.00;100684.19;2089640;28;20260;-70
2022/01/19 01:11:16;;;;;;;58.92;30.35;;;;;;;-1.07;100.00;100673.34;2081726;28;20667;-70
2022/01/19 01:12:24;;;;;;;65.05;31.45;;;;;;;-1.00;100.00;100670.81;2089835;28;20179;-69
2022/01/19 01:15:23;;;;;;;66.03;31.08;;;;;;;-0.94;100.00;100667.50;2097904;28;20586;-70
2022/01/19 01:16:29;;;;;;;61.85;29.98;;;;;;;-0.99;100.00;100657.53;2098174;28;20186;-70
2022/01/19 01:18:50;;;;;;;68.05;32.10;;;;;;;-1.02;100.00;100644.81;2097948;28;20194;-70
2022/01/19 01:19:52;;;;;;;60.17;31.02;;;;;;;-1.02;100.00;100644.81;2097957;28;20612;-70
2022/01/19 01:20:55;;;;;;;64.55;31.63;;;;;;;-1.04;100.00;100638.13;2097320;28;20194;-70
2022/01/19 01:21:56;;;;;;;60.00;31.40;;;;;;;-1.03;100.00;100635.34;2097694;28;20217;-70
2022/01/19 01:22:58;;;;;;;62.83;31.23;;;;;;;-1.03;100.00;100645.00;2097917;28;20194;-70
2022/01/19 01:24:03;;;;;;;60.17;30.73;;;;;;;-1.01;100.00;100637.78;2089625;28;20325;-70
2022/01/19 01:25:06;;;;;;;57.03;30.80;;;;;;;-1.03;100.00;100629.28;2089549;28;20199;-70
2022/01/19 01:26:09;;;;;;;59.20;30.80;;;;;;;-1.02;100.00;100625.66;2089761;28;20642;-70
2022/01/19 01:27:10;;;;;;;52.05;31.08;;;;;;;-0.96;100.00;100627.53;2089497;28;20612;-70
2022/01/19 01:28:14;;;;;;;60.00;31.95;;;;;;;-0.96;100.00;100630.16;2089840;28;20191;-70
2022/01/19 01:29:15;;;;;;;64.57;31.17;;;;;;;-0.98;100.00;100627.72;2097832;28;20657;-70
2022/01/19 01:30:19;;;;;;;58.37;30.93;;;;;;;-0.97;100.00;100624.13;2089580;28;20595;-70
2022/01/19 01:31:21;;;;;;;57.47;32.05;;;;;;;-0.98;100.00;100619.06;2089677;28;20434;-70
2022/01/19 01:32:22;;;;;;;54.55;31.67;;;;;;;-0.98;100.00;100616.44;2090243;28;20194;-70
2022/01/19 01:33:24;;;;;;;63.07;31.17;;;;;;;-0.97;100.00;100613.63;2090336;28;20265;-70
2022/01/19 01:34:26;;;;;;;68.47;32.75;;;;;;;-0.97;100.00;100616.25;2090224;28;20672;-70
2022/01/19 01:35:28;;;;;;;63.00;31.75;;;;;;;-0.97;100.00;100612.81;2089559;28;20595;-70
2022/01/19 01:36:29;;;;;;;60.63;32.35;;;;;;;-0.95;100.00;100610.84;2089240;28;20317;-70
2022/01/19 01:37:34;;;;;;;68.55;30.85;;;;;;;-0.99;100.00;100605.16;2089512;28;20197;-70
2022/01/19 01:38:37;;;;;;;60.25;31.42;;;;;;;-0.98;100.00;100603.34;2081563;28;20199;-70
2022/01/19 01:39:38;;;;;;;58.70;30.98;;;;;;;-1.00;100.00;100602.72;2081698;28;20299;-70
2022/01/19 01:40:42;;;;;;;58.50;30.57;;;;;;;-0.99;100.00;100607.78;2081277;28;20254;-70
2022/01/19 01:41:43;;;;;;;57.58;30.85;;;;;;;-1.01;100.00;100607.16;2081670;28;20203;-71
2022/01/19 01:42:49;;;;;;;53.78;30.67;;;;;;;-1.02;100.00;100596.88;2081647;28;20196;-70
2022/01/19 01:43:53;;;;;;;52.25;30.38;;;;;;;-1.01;100.00;100603.72;2081656;28;20677;-70
2022/01/19 01:45:02;;;;;;;52.78;32.55;;;;;;;-1.02;100.00;100600.28;2090515;28;20210;-70
2022/01/19 01:46:11;;;;;;;51.13;29.23;;;;;;;-0.99;100.00;100597.28;2089567;28;20224;-70
2022/01/19 01:47:14;;;;;;;58.33;29.48;;;;;;;-0.98;100.00;100593.69;2082280;28;20212;-72
2022/01/19 01:48:21;;;;;;;57.17;29.00;;;;;;;-0.98;100.00;100591.06;2081585;28;20650;-70
2022/01/19 01:49:28;;;;;;;66.22;29.98;;;;;;;-0.98;100.00;100577.16;2082128;28;20200;-70
2022/01/19 01:53:26;;;;;;;56.90;29.00;;;;;;;-0.96;100.00;100564.69;2085603;28;20183;-70
2022/01/19 01:54:28;;;;;;;60.33;30.75;;;;;;;-0.97;100.00;100555.19;2092798;28;20621;-70
2022/01/19 01:55:29;;;;;;;49.40;28.17;;;;;;;-0.99;100.00;100555.38;2090995;28;20213;-70
2022/01/19 01:56:32;;;;;;;54.47;30.07;;;;;;;-0.95;100.00;100561.91;2082829;28;20227;-70
2022/01/19 01:57:38;;;;;;;47.67;28.20;;;;;;;-0.93;100.00;100553.84;2083727;28;20685;-70
2022/01/19 01:58:42;;;;;;;50.88;29.00;;;;;;;-0.91;100.00;100560.53;2091200;28;20654;-70
2022/01/19 02:00:19;;;;;;;58.63;29.60;;;;;;;-0.92;100.00;100558.09;2068149;28;20211;-71
2022/01/19 02:01:22;;;;;;;51.50;27.30;;;;;;;-0.95;100.00;100561.91;2083633;28;20250;-71
2022/01/19 02:02:25;;;;;;;58.30;29.08;;;;;;;-0.89;100.00;100565.56;2082850;28;20238;-71
2022/01/19 02:03:28;;;;;;;58.33;29.05;;;;;;;-0.90;100.00;100559.53;2074938;28;20196;-70
2022/01/19 02:04:33;;;;;;;58.10;28.25;;;;;;;-0.90;100.00;100569.19;2074781;28;20307;-71
2022/01/19 02:05:39;;;;;;;53.03;28.27;;;;;;;-0.89;100.00;100565.56;2075376;28;20204;-71
2022/01/19 02:06:58;;;;;;;48.53;26.77;;;;;;;-0.88;100.00;100556.72;2083000;28;20686;-71
2022/01/19 02:08:05;;;;;;;44.95;25.17;;;;;;;-0.88;100.00;100556.72;2082829;28;20207;-71
2022/01/19 02:09:12;;;;;;;46.00;26.35;;;;;;;-0.87;100.00;100560.94;2075371;28;20192;-71
2022/01/19 02:10:30;;;;;;;52.75;26.90;;;;;;;-0.84;100.00;100559.78;2075344;28;20208;-70
2022/01/19 02:15:49;;;;;;;49.17;26.00;;;;;;;-0.83;100.00;100564.84;2076993;28;20199;-71
2022/01/19 02:15:53;;;;;;;35.35;23.55;;;;;;;-0.81;100.00;100538.44;2083035;28;20176;-71
2022/01/19 02:22:09;;;;;;;39.15;22.77;;;;;;;-0.67;100.00;100532.38;2091086;28;20672;-71
2022/01/19 02:23:19;;;;;;;40.03;22.50;;;;;;;-0.65;100.00;100525.94;2091031;28;20199;-71
2022/01/19 02:24:27;;;;;;;41.78;23.17;;;;;;;-0.66;100.00;100528.75;2082934;28;20293;-71
2022/01/19 02:25:31;;;;;;;32.58;22.48;;;;;;;-0.67;100.00;100530.56;2083088;28;20172;-71
2022/01/19 02:26:49;;;;;;;40.00;22.40;;;;;;;-0.70;100.00;100523.03;2082672;28;20639;-71
2022/01/19 02:29:21;;;;;;;35.10;21.75;;;;;;;-0.66;100.00;100526.13;2082693;28;20198;-71
2022/01/19 02:36:30;;;;;;;31.38;21.65;;;;;;;-0.64;100.00;100524.94;2058200;28;20206;-71
2022/01/19 02:40:14;;;;;;;34.95;20.00;;;;;;;-0.59;100.00;100513.91;2082574;28;20207;-71
2022/01/19 02:41:18;;;;;;;36.28;20.17;;;;;;;-0.57;100.00;100511.91;2075482;28;20271;-71
2022/01/19 02:42:24;;;;;;;30.80;20.73;;;;;;;-0.58;100.00;100518.13;2074634;28;20200;-71
2022/01/19 02:43:30;;;;;;;34.40;19.27;;;;;;;-0.58;100.00;100512.91;2082831;28;20537;-71
2022/01/19 02:46:34;;;;;;;28.55;20.23;;;;;;;-0.58;100.00;100515.53;2083235;28;20187;-71
2022/01/19 02:50:03;;;;;;;32.60;20.98;;;;;;;-0.50;100.00;100523.25;2083311;28;20180;-71
2022/01/19 02:51:07;;;;;;;35.90;21.75;;;;;;;-0.48;100.00;100517.81;2082039;28;20250;-71
2022/01/19 02:52:07;;;;;;;37.17;21.00;;;;;;;-0.42;100.00;100511.84;2082557;28;20199;-71
2022/01/19 02:53:09;;;;;;;34.57;20.30;;;;;;;-0.44;100.00;100508.56;2082469;28;20730;-71
2022/01/19 02:54:11;;;;;;;35.40;20.63;;;;;;;-0.44;100.00;100519.06;2074323;28;20208;-71
2022/01/19 02:55:14;;;;;;;32.92;20.10;;;;;;;-0.44;100.00;100512.00;2074434;28;20196;-71
2022/01/19 02:56:22;;;;;;;29.60;20.20;;;;;;;-0.46;100.00;100510.56;2082559;28;20191;-71
2022/01/19 02:57:26;;;;;;;32.17;20.77;;;;;;;-0.50;100.00;100501.47;2082517;28;20191;-71
2022/01/19 02:58:27;;;;;;;29.33;19.58;;;;;;;-0.51;100.00;100505.09;2082563;28;20666;-71
2022/01/19 02:59:41;;;;;;;30.60;20.67;;;;;;;-0.46;100.00;100495.66;2092533;28;20635;-71
2022/01/19 03:08:45;;;;;;;26.00;19.58;;;;;;;-0.44;100.00;100467.44;2093179;28;20202;-71
2022/01/19 03:09:47;;;;;;;34.60;20.45;;;;;;;-0.42;100.00;100467.28;2090958;28;20225;-71
2022/01/19 03:10:50;;;;;;;32.65;21.08;;;;;;;-0.43;100.00;100470.91;2090874;28;20230;-71
2022/01/19 03:11:53;;;;;;;29.65;20.58;;;;;;;-0.45;100.00;100472.88;2090630;28;20210;-71
2022/01/19 03:12:54;;;;;;;33.58;20.52;;;;;;;-0.44;100.00;100474.50;2090368;28;20207;-71
2022/01/19 03:13:56;;;;;;;30.73;20.67;;;;;;;-0.49;100.00;100466.41;2090578;28;20209;-71
2022/01/19 03:14:57;;;;;;;23.98;19.13;;;;;;;-0.47;100.00;100469.63;2090928;28;20191;-71
2022/01/19 03:16:00;;;;;;;27.52;19.92;;;;;;;-0.47;100.00;100472.25;2090593;28;20283;-71
2022/01/19 03:17:01;;;;;;;31.23;19.73;;;;;;;-0.49;100.00;100467.22;2090641;28;20198;-71
2022/01/19 03:18:03;;;;;;;30.23;19.30;;;;;;;-0.44;100.00;100464.00;2099031;28;20191;-71
2022/01/19 03:19:07;;;;;;;27.02;20.10;;;;;;;-0.46;100.00;100464.19;2098773;28;20225;-71
2022/01/19 03:20:10;;;;;;;30.20;19.13;;;;;;;-0.44;100.00;100467.44;2090475;28;20661;-71
2022/01/19 03:21:11;;;;;;;31.30;22.13;;;;;;;-0.41;100.00;100466.28;2090280;28;20211;-71
2022/01/19 03:22:14;;;;;;;30.85;21.17;;;;;;;-0.42;100.00;100465.47;2090676;28;20230;-71
2022/01/19 03:23:20;;;;;;;30.88;21.23;;;;;;;-0.42;100.00;100467.28;2090485;28;20557;-71
2022/01/19 03:24:22;;;;;;;35.17;19.63;;;;;;;-0.43;100.00;100460.41;2091134;28;20708;-71
2022/01/19 03:25:23;;;;;;;35.65;20.02;;;;;;;-0.45;100.00;100462.38;2090635;28;20704;-71
2022/01/19 03:26:34;;;;;;;27.45;19.75;;;;;;;-0.47;100.00;100464.41;2090482;28;20215;-71
2022/01/19 03:27:55;;;;;;;28.85;20.13;;;;;;;-0.46;100.00;100463.38;2078633;28;20314;-71
2022/01/19 03:28:57;;;;;;;28.42;19.77;;;;;;;-0.45;100.00;100465.00;2098722;28;20202;-71
2022/01/19 03:29:58;;;;;;;29.10;20.08;;;;;;;-0.42;100.00;100456.78;2090523;28;20236;-71
2022/01/19 03:31:01;;;;;;;28.40;19.92;;;;;;;-0.48;100.00;100460.16;2098826;28;20186;-71
2022/01/19 03:32:02;;;;;;;32.75;20.38;;;;;;;-0.47;100.00;100461.78;2098922;28;20190;-71
2022/01/19 03:33:05;;;;;;;27.85;19.02;;;;;;;-0.44;100.00;100467.44;2090466;28;20199;-71
2022/01/19 03:34:06;;;;;;;26.17;19.63;;;;;;;-0.45;100.00;100463.19;2090515;28;20195;-71
2022/01/19 03:35:09;;;;;;;28.50;19.40;;;;;;;-0.44;100.00;100456.13;2090755;28;20225;-71
2022/01/19 03:36:10;;;;;;;29.35;19.55;;;;;;;-0.43;100.00;100460.41;2090067;28;20195;-71
2022/01/19 03:37:12;;;;;;;31.30;19.70;;;;;;;-0.41;100.00;100463.66;2090549;28;20191;-71
2022/01/19 03:38:13;;;;;;;22.98;19.27;;;;;;;-0.42;100.00;100460.22;2090606;28;20207;-71
2022/01/19 03:39:18;;;;;;;24.95;19.45;;;;;;;-0.42;100.00;100459.41;2090369;28;20274;-71
2022/01/19 03:40:22;;;;;;;27.15;19.60;;;;;;;-0.43;100.00;100458.59;2090803;28;20199;-71
2022/01/19 03:41:24;;;;;;;28.83;20.13;;;;;;;-0.41;100.00;100453.16;2090708;28;20199;-71
2022/01/19 03:42:25;;;;;;;27.35;19.75;;;;;;;-0.40;100.00;100446.91;2098600;28;20664;-71
2022/01/19 03:43:26;;;;;;;29.73;19.87;;;;;;;-0.40;100.00;100449.53;2098612;28;20610;-71
2022/01/19 03:44:35;;;;;;;24.83;19.73;;;;;;;-0.42;100.00;100446.31;2091710;28;20206;-71
2022/01/19 03:45:38;;;;;;;25.55;18.38;;;;;;;-0.38;100.00;100450.16;2098664;28;20190;-71
2022/01/19 03:46:54;;;;;;;22.83;18.73;;;;;;;-0.38;100.00;100447.53;2090561;28;20294;-71
2022/01/19 03:48:08;;;;;;;29.55;19.33;;;;;;;-0.38;100.00;100450.16;2092224;28;20215;-71
2022/01/19 03:49:12;;;;;;;28.27;19.88;;;;;;;-0.39;100.00;100444.09;2092154;28;20195;-71
2022/01/19 03:50:14;;;;;;;25.50;19.15;;;;;;;-0.41;100.00;100432.19;2099355;28;20205;-71
2022/01/19 03:51:15;;;;;;;23.87;18.60;;;;;;;-0.41;100.00;100433.00;2106418;28;20224;-71
2022/01/19 03:52:18;;;;;;;30.27;18.30;;;;;;;-0.36;100.00;100440.28;2106865;28;20189;-71
2022/01/19 03:53:21;;;;;;;21.98;17.58;;;;;;;-0.41;100.00;100427.75;2089583;28;20198;-71
2022/01/19 03:54:24;;;;;;;23.20;18.70;;;;;;;-0.37;100.00;100428.16;2098640;28;20209;-71
2022/01/19 03:55:26;;;;;;;22.88;17.90;;;;;;;-0.39;100.00;100430.97;2099135;28;20186;-70
2022/01/19 03:56:26;;;;;;;25.00;18.55;;;;;;;-0.38;100.00;100426.56;2098429;28;20255;-70
2022/01/19 03:57:29;;;;;;;30.98;18.48;;;;;;;-0.38;100.00;100429.97;2090272;28;20679;-70
2022/01/19 03:58:30;;;;;;;31.77;18.70;;;;;;;-0.39;100.00;100430.19;2090246;28;20627;-70
2022/01/19 03:59:33;;;;;;;29.50;19.75;;;;;;;-0.39;100.00;100432.78;2090149;28;20681;-70
2022/01/19 04:00:39;;;;;;;30.40;20.15;;;;;;;-0.41;100.00;100426.94;2098627;28;20190;-70
2022/01/19 04:01:42;;;;;;;27.65;19.17;;;;;;;-0.44;100.00;100430.72;2106829;28;20229;-70
2022/01/19 04:02:42;;;;;;;28.95;18.60;;;;;;;-0.43;100.00;100435.00;2106718;28;20201;-71
2022/01/19 04:05:11;;;;;;;20.92;17.90;;;;;;;-0.44;100.00;100427.31;2082378;28;20449;-70
2022/01/19 04:06:19;;;;;;;26.83;19.50;;;;;;;-0.46;100.00;100424.88;2090984;28;20230;-70
2022/01/19 04:07:24;;;;;;;28.85;18.30;;;;;;;-0.45;100.00;100428.31;2090597;28;20198;-70
2022/01/19 04:08:27;;;;;;;33.70;20.00;;;;;;;-0.43;100.00;100431.56;2090766;28;20226;-71
2022/01/19 04:09:31;;;;;;;26.02;18.83;;;;;;;-0.42;100.00;100430.56;2090113;28;20692;-71
2022/01/19 04:10:32;;;;;;;32.22;19.35;;;;;;;-0.43;100.00;100434.19;2090476;28;20628;-72
2022/01/19 04:11:34;;;;;;;21.50;19.23;;;;;;;-0.44;100.00;100427.31;2098486;28;20226;-71
2022/01/19 04:12:44;;;;;;;29.15;19.48;;;;;;;-0.42;100.00;100433.19;2090047;28;20226;-71
2022/01/19 04:15:19;;;;;;;24.05;19.52;;;;;;;-0.41;100.00;100432.19;2092818;28;20201;-71
2022/01/19 04:16:21;;;;;;;26.80;19.35;;;;;;;-0.41;100.00;100432.19;2090620;28;20209;-70
2022/01/19 04:17:23;;;;;;;27.17;19.47;;;;;;;-0.43;100.00;100435.00;2090115;28;20199;-71
2022/01/19 04:18:24;;;;;;;25.20;19.88;;;;;;;-0.42;100.00;100435.81;2098629;28;20190;-70
2022/01/19 04:19:31;;;;;;;33.60;19.48;;;;;;;-0.41;100.00;100434.81;2099169;28;20186;-70
2022/01/19 04:20:48;;;;;;;24.42;19.60;;;;;;;-0.38;100.00;100439.66;2106727;28;20579;-70
2022/01/19 04:21:50;;;;;;;24.15;19.50;;;;;;;-0.40;100.00;100429.38;2098018;28;20688;-70
2022/01/19 04:22:56;;;;;;;32.67;18.50;;;;;;;-0.38;100.00;100434.41;2090127;28;20194;-71
2022/01/19 04:23:57;;;;;;;24.83;19.98;;;;;;;-0.37;100.00;100434.22;2090626;28;20191;-70
2022/01/19 04:25:00;;;;;;;25.07;19.30;;;;;;;-0.31;100.00;100438.72;2098270;28;20186;-71
2022/01/19 04:26:03;;;;;;;27.73;19.30;;;;;;;-0.32;100.00;100431.84;2097593;28;20193;-70
2022/01/19 04:28:24;;;;;;;28.02;20.20;;;;;;;-0.33;100.00;100421.56;2092193;28;20191;-70
2022/01/19 04:29:27;;;;;;;24.30;19.83;;;;;;;-0.34;100.00;100427.81;2090200;28;20199;-70
2022/01/19 04:30:30;;;;;;;26.05;19.40;;;;;;;-0.34;100.00;100422.56;2089803;28;20564;-71
2022/01/19 04:31:34;;;;;;;22.20;19.27;;;;;;;-0.37;100.00;100420.31;2098954;28;20609;-71
2022/01/19 04:32:42;;;;;;;27.97;19.70;;;;;;;-0.40;100.00;100418.06;2098211;28;20213;-70
2022/01/19 04:33:45;;;;;;;30.38;19.52;;;;;;;-0.37;100.00;100408.00;2099284;28;20231;-70
2022/01/19 04:34:48;;;;;;;33.47;19.27;;;;;;;-0.40;100.00;100407.59;2098187;28;20202;-70
2022/01/19 04:36:05;;;;;;;27.30;19.80;;;;;;;-0.40;100.00;100405.78;2097677;28;20665;-70
2022/01/19 04:37:38;;;;;;;28.30;19.27;;;;;;;-0.37;100.00;100407.19;2091907;28;20679;-71
2022/01/19 04:48:26;;;;;;;28.05;19.55;;;;;;;-0.44;100.00;100380.94;2067360;28;20637;-71
2022/01/19 05:02:41;;;;;;;31.63;20.50;;;;;;;-0.47;100.00;100362.16;2078441;28;20266;-71
2022/01/19 05:03:52;;;;;;;31.08;19.20;;;;;;;-0.49;100.00;100351.06;2098046;28;20285;-70
2022/01/19 05:05:22;;;;;;;27.23;20.30;;;;;;;-0.48;100.00;100350.06;2084672;28;20573;-70
2022/01/19 05:06:25;;;;;;;27.10;20.20;;;;;;;-0.50;100.00;100349.44;2097561;28;20735;-70
2022/01/19 05:07:31;;;;;;;23.48;19.85;;;;;;;-0.49;100.00;100344.00;2098251;28;20235;-70
2022/01/19 05:08:49;;;;;;;23.17;19.90;;;;;;;-0.49;100.00;100345.81;2098061;28;20299;-70
2022/01/19 05:10:01;;;;;;;27.50;20.38;;;;;;;-0.51;100.00;100351.25;2092370;28;20191;-70
2022/01/19 05:13:52;;;;;;;26.80;20.10;;;;;;;-0.53;100.00;100341.94;2092281;28;20222;-70
2022/01/19 05:14:54;;;;;;;21.50;19.33;;;;;;;-0.58;100.00;100337.28;2090639;28;20198;-70
2022/01/19 05:15:57;;;;;;;23.92;19.52;;;;;;;-0.59;100.00;100341.72;2097969;28;20194;-70
2022/01/19 05:17:00;;;;;;;26.45;20.85;;;;;;;-0.59;100.00;100333.88;2089835;28;20260;-70
2022/01/19 05:18:04;;;;;;;28.38;19.52;;;;;;;-0.57;100.00;100342.34;2090128;28;20195;-71
2022/01/19 05:19:06;;;;;;;27.25;19.23;;;;;;;-0.57;100.00;100331.03;2098199;28;20535;-70
2022/01/19 05:20:10;;;;;;;23.60;19.60;;;;;;;-0.58;100.00;100330.25;2097990;28;20199;-70
2022/01/19 05:21:12;;;;;;;25.02;19.67;;;;;;;-0.60;100.00;100328.81;2097794;28;20258;-70
2022/01/19 05:22:35;;;;;;;27.98;20.13;;;;;;;-0.59;100.00;100326.00;2098090;28;20273;-71
2022/01/19 05:23:36;;;;;;;26.42;19.73;;;;;;;-0.60;100.00;100327.00;2089760;28;20684;-70
2022/01/19 05:24:38;;;;;;;30.05;19.98;;;;;;;-0.60;100.00;100329.63;2089177;28;20199;-71
2022/01/19 05:25:45;;;;;;;23.05;19.20;;;;;;;-0.58;100.00;100330.25;2090799;28;20218;-71
2022/01/19 05:26:55;;;;;;;30.05;20.23;;;;;;;-0.60;100.00;100329.63;2090930;28;20191;-71
2022/01/19 05:28:05;;;;;;;29.52;19.80;;;;;;;-0.61;100.00;100322.78;2090801;28;20265;-70
2022/01/19 05:29:07;;;;;;;33.10;20.25;;;;;;;-0.63;100.00;100327.38;2089684;28;20199;-71
2022/01/19 05:30:09;;;;;;;23.85;19.95;;;;;;;-0.61;100.00;100337.66;2098042;28;20190;-71
2022/01/19 05:31:15;;;;;;;23.27;18.92;;;;;;;-0.64;100.00;100325.75;2098139;28;20224;-71
2022/01/19 05:32:19;;;;;;;26.40;19.80;;;;;;;-0.62;100.00;100331.59;2090523;28;20228;-71
2022/01/19 05:33:22;;;;;;;23.80;19.15;;;;;;;-0.62;100.00;100323.75;2089679;28;20199;-70
2022/01/19 05:34:22;;;;;;;24.60;18.98;;;;;;;-0.64;100.00;100327.56;2098044;28;20194;-70
2022/01/19 05:35:29;;;;;;;24.08;20.23;;;;;;;-0.62;100.00;100323.75;2097994;28;20676;-70
2022/01/19 05:37:01;;;;;;;30.65;20.00;;;;;;;-0.61;100.00;100319.31;2092140;28;20245;-70
2022/01/19 05:38:27;;;;;;;29.48;20.40;;;;;;;-0.62;100.00;100326.38;2097833;28;20222;-71
2022/01/19 05:39:46;;;;;;;27.00;19.02;;;;;;;-0.54;100.00;100321.97;2098160;28;20186;-70
2022/01/19 05:40:58;;;;;;;22.08;18.60;;;;;;;-0.54;100.00;100314.13;2097937;28;20656;-71
2022/01/19 05:41:58;;;;;;;28.67;20.05;;;;;;;-0.58;100.00;100314.50;2089973;28;20203;-70
2022/01/19 05:43:00;;;;;;;28.10;20.20;;;;;;;-0.59;100.00;100318.13;2089570;28;20201;-71
2022/01/19 05:44:05;;;;;;;24.65;19.77;;;;;;;-0.61;100.00;100319.31;2089697;28;20256;-70
2022/01/19 05:45:08;;;;;;;26.60;20.27;;;;;;;-0.64;100.00;100303.97;2089783;28;20584;-71
2022/01/19 05:46:10;;;;;;;27.52;20.23;;;;;;;-0.67;100.00;100310.44;2089530;28;20202;-71
2022/01/19 05:47:11;;;;;;;25.42;20.55;;;;;;;-0.69;100.00;100298.53;2089614;28;20224;-70
2022/01/19 05:48:13;;;;;;;29.70;20.42;;;;;;;-0.70;100.00;100302.94;2097934;28;20206;-70
2022/01/19 05:49:17;;;;;;;29.40;20.00;;;;;;;-0.71;100.00;100303.94;2097973;28;20202;-70
2022/01/19 05:50:19;;;;;;;23.43;20.00;;;;;;;-0.70;100.00;100304.75;2089485;28;20195;-71
2022/01/19 05:51:30;;;;;;;29.65;19.52;;;;;;;-0.71;100.00;100295.25;2090451;28;20222;-71
2022/01/19 05:52:33;;;;;;;24.05;19.52;;;;;;;-0.73;100.00;100300.69;2089740;28;20199;-71
2022/01/19 05:53:37;;;;;;;29.08;20.35;;;;;;;-0.75;100.00;100301.91;2098044;28;20202;-70
2022/01/19 05:54:40;;;;;;;22.92;19.17;;;;;;;-0.73;100.00;100298.06;2106016;28;20269;-70
2022/01/19 05:55:42;;;;;;;28.23;20.80;;;;;;;-0.76;100.00;100298.47;2097855;28;20201;-70
2022/01/19 05:56:43;;;;;;;26.70;20.00;;;;;;;-0.79;100.00;100293.59;2097860;28;20592;-70